Time;durP1;ratioP1;P1;durP2;ratioP2;P2;SDS_P1;SDS_P2;PMS_P1;PMS_P2;Temp;Humidity;BMP_temperature;BMP_pressure;BME280_temperature;BME280_humidity;BME280_pressure;Samples;Min_cycle;Max_cycle;Signal;HPM_P1;HPM_P2
2023/12/16 00:00:59;;;;;;;14.27;5.67;;;;;7.50;103424.00;;;;10090966;29;20228;-84
2023/12/16 00:06:01;;;;;;;15.90;5.70;;;;;7.50;103428.00;;;;10072132;29;20227;-85
2023/12/16 00:11:03;;;;;;;13.97;5.27;;;;;7.50;103435.00;;;;10064334;29;20239;-83
2023/12/16 00:16:05;;;;;;;17.87;5.90;;;;;7.40;103425.00;;;;10075760;29;20235;-86
2023/12/16 00:21:07;;;;;;;15.23;5.53;;;;;7.40;103429.00;;;;10055582;29;20231;-86
2023/12/16 00:26:08;;;;;;;11.43;4.90;;;;;7.40;103426.00;;;;10081235;29;20316;-86
2023/12/16 00:31:09;;;;;;;22.83;6.03;;;;;7.40;103419.00;;;;10056997;29;20250;-86
2023/12/16 00:36:11;;;;;;;14.43;4.63;;;;;7.50;103423.00;;;;10075425;29;20220;-85
2023/12/16 00:41:12;;;;;;;13.10;4.70;;;;;7.50;103425.00;;;;10079113;29;20231;-84
2023/12/16 00:46:13;;;;;;;17.43;4.00;;;;;7.50;103417.00;;;;10086369;29;20288;-86
2023/12/16 00:51:14;;;;;;;12.10;4.27;;;;;7.50;103415.00;;;;10071973;29;20679;-79
2023/12/16 00:56:16;;;;;;;14.23;4.47;;;;;7.50;103420.00;;;;10066665;29;21021;-80
2023/12/16 01:01:17;;;;;;;15.23;4.23;;;;;7.50;103417.00;;;;10085575;29;20702;-79
2023/12/16 01:06:18;;;;;;;10.50;4.07;;;;;7.40;103419.00;;;;10082509;29;20223;-79
2023/12/16 01:11:19;;;;;;;14.73;5.07;;;;;7.40;103403.00;;;;10083199;29;20517;-79
2023/12/16 01:16:21;;;;;;;9.20;4.00;;;;;7.40;103413.00;;;;10098002;29;20255;-80
2023/12/16 01:21:22;;;;;;;13.60;4.43;;;;;7.30;103425.00;;;;10053046;29;20773;-79
2023/12/16 01:26:23;;;;;;;10.73;3.93;;;;;7.30;103422.00;;;;10073196;29;20319;-79
2023/12/16 01:31:24;;;;;;;12.60;4.03;;;;;7.30;103423.00;;;;10066296;29;20289;-79
2023/12/16 01:36:25;;;;;;;13.80;3.47;;;;;7.20;103425.00;;;;10088524;29;20254;-80
2023/12/16 01:41:27;;;;;;;9.63;3.50;;;;;7.20;103411.00;;;;10053689;29;20239;-80
2023/12/16 01:46:28;;;;;;;13.80;4.37;;;;;7.30;103422.00;;;;10048278;29;20230;-79
2023/12/16 01:51:31;;;;;;;14.37;4.60;;;;;7.30;103432.00;;;;10055720;29;20231;-79
2023/12/16 01:56:33;;;;;;;11.60;4.17;;;;;7.30;103420.00;;;;10063177;29;20857;-79
2023/12/16 02:01:34;;;;;;;20.03;4.50;;;;;7.30;103429.00;;;;10050776;29;20244;-85
2023/12/16 02:06:39;;;;;;;16.67;4.77;;;;;7.30;103430.00;;;;10057587;29;20745;-86
2023/12/16 02:11:41;;;;;;;18.80;5.10;;;;;7.30;103432.00;;;;10069700;29;20239;-86
2023/12/16 02:16:42;;;;;;;13.87;4.70;;;;;7.20;103420.00;;;;10066542;29;20239;-86
2023/12/16 02:21:43;;;;;;;14.47;4.63;;;;;7.20;103420.00;;;;10052353;29;20287;-85
2023/12/16 02:26:44;;;;;;;12.37;4.17;;;;;7.20;103418.00;;;;10056674;29;21117;-86
2023/12/16 02:31:45;;;;;;;17.23;5.37;;;;;7.10;103424.00;;;;10059860;29;20589;-85
2023/12/16 02:36:47;;;;;;;13.57;4.70;;;;;7.00;103425.00;;;;10054520;29;20233;-85
2023/12/16 02:41:48;;;;;;;11.20;5.00;;;;;7.00;103419.00;;;;10053370;29;20239;-85
2023/12/16 02:46:49;;;;;;;14.43;5.40;;;;;6.90;103416.00;;;;10066632;29;20741;-84
2023/12/16 02:51:50;;;;;;;21.03;5.70;;;;;6.80;103416.00;;;;10065200;29;20609;-83
2023/12/16 02:56:52;;;;;;;14.33;4.13;;;;;6.70;103417.00;;;;10048384;29;20234;-84
2023/12/16 03:01:53;;;;;;;15.93;5.90;;;;;6.60;103411.00;;;;10066098;29;20319;-85
2023/12/16 03:06:54;;;;;;;18.93;5.00;;;;;6.60;103399.00;;;;10065080;29;20235;-82
2023/12/16 03:11:55;;;;;;;11.07;4.40;;;;;6.60;103402.00;;;;10077830;29;20254;-82
2023/12/16 03:16:57;;;;;;;17.10;5.93;;;;;6.60;103403.00;;;;10074361;29;20705;-82
2023/12/16 03:21:58;;;;;;;15.10;4.67;;;;;6.60;103388.00;;;;10057867;29;20228;-82
2023/12/16 03:26:59;;;;;;;15.20;5.10;;;;;6.60;103383.00;;;;10079340;29;20243;-82
2023/12/16 03:32:01;;;;;;;16.07;4.90;;;;;6.50;103387.00;;;;10063475;29;20224;-82
2023/12/16 03:37:03;;;;;;;13.97;4.80;;;;;6.40;103411.00;;;;10074779;29;20785;-82
2023/12/16 03:42:04;;;;;;;11.97;4.87;;;;;6.30;103420.00;;;;10057426;29;20235;-83
2023/12/16 03:47:05;;;;;;;10.93;4.63;;;;;6.30;103425.00;;;;10055461;29;20761;-82
2023/12/16 03:52:07;;;;;;;10.30;4.40;;;;;6.20;103417.00;;;;10061712;29;20250;-82
2023/12/16 03:57:08;;;;;;;22.87;5.90;;;;;6.10;103434.00;;;;10076526;29;20358;-82
2023/12/16 04:02:10;;;;;;;14.37;4.20;;;;;6.00;103441.00;;;;10071481;29;20241;-82
2023/12/16 04:07:11;;;;;;;11.93;4.63;;;;;6.00;103432.00;;;;10057065;29;20314;-83
2023/12/16 04:12:13;;;;;;;12.77;5.80;;;;;6.00;103431.00;;;;10071576;29;20311;-82
2023/12/16 04:17:14;;;;;;;15.80;4.67;;;;;6.00;103432.00;;;;10070125;29;20220;-82
2023/12/16 04:22:15;;;;;;;10.80;3.70;;;;;6.00;103436.00;;;;10076143;29;20590;-82
2023/12/16 04:27:16;;;;;;;15.93;3.97;;;;;6.00;103437.00;;;;10053413;29;20291;-82
2023/12/16 04:32:18;;;;;;;10.60;3.53;;;;;6.00;103438.00;;;;10055112;29;20287;-82
2023/12/16 04:37:19;;;;;;;10.80;3.50;;;;;6.00;103431.00;;;;10062924;29;20863;-83
2023/12/16 04:42:20;;;;;;;13.67;4.40;;;;;5.90;103439.00;;;;10053560;29;20895;-82
2023/12/16 04:47:21;;;;;;;10.63;3.40;;;;;5.90;103438.00;;;;10073279;29;20736;-82
2023/12/16 04:52:22;;;;;;;15.17;4.93;;;;;5.80;103443.00;;;;10053089;29;20267;-82
2023/12/16 04:57:24;;;;;;;12.10;3.57;;;;;5.80;103442.00;;;;10069691;29;20296;-82
2023/12/16 05:02:25;;;;;;;12.20;3.80;;;;;5.80;103432.00;;;;10054921;29;20315;-82
2023/12/16 05:07:26;;;;;;;14.30;3.73;;;;;5.80;103432.00;;;;10052976;29;20314;-82
2023/12/16 05:12:27;;;;;;;14.03;3.23;;;;;5.90;103423.00;;;;10052149;29;20236;-82
2023/12/16 05:17:37;;;;;;;17.67;4.37;;;;;6.00;103423.00;;;;10056771;29;20892;-83
2023/12/16 05:22:38;;;;;;;12.43;3.60;;;;;6.10;103419.00;;;;10058698;29;20325;-82
2023/12/16 05:27:40;;;;;;;16.93;3.30;;;;;6.30;103425.00;;;;10058401;29;20254;-82
2023/12/16 05:32:41;;;;;;;11.60;3.40;;;;;6.40;103432.00;;;;10056701;29;20235;-82
2023/12/16 05:37:42;;;;;;;12.40;3.70;;;;;6.50;103421.00;;;;10081550;29;20236;-82
2023/12/16 05:42:43;;;;;;;13.77;3.30;;;;;6.60;103413.00;;;;10074963;29;20236;-83
2023/12/16 05:47:45;;;;;;;7.90;3.10;;;;;6.60;103417.00;;;;10059978;29;20250;-83
2023/12/16 05:52:46;;;;;;;17.23;3.60;;;;;6.70;103422.00;;;;10061162;29;20239;-82
2023/12/16 05:57:47;;;;;;;13.70;3.00;;;;;6.80;103416.00;;;;10070359;29;20247;-83
2023/12/16 06:02:48;;;;;;;8.83;3.20;;;;;6.80;103409.00;;;;10087981;29;20967;-82
2023/12/16 06:07:50;;;;;;;10.93;3.13;;;;;6.70;103410.00;;;;10072065;29;20231;-82
2023/12/16 06:12:51;;;;;;;12.07;3.27;;;;;6.70;103403.00;;;;10075420;29;20227;-82
2023/12/16 06:17:52;;;;;;;12.20;3.30;;;;;6.60;103410.00;;;;10075043;29;20227;-82
2023/12/16 06:22:53;;;;;;;10.07;3.00;;;;;6.60;103420.00;;;;10054192;29;20258;-83
2023/12/16 06:27:55;;;;;;;14.30;3.43;;;;;6.60;103415.00;;;;10050497;29;20275;-83
2023/12/16 06:32:56;;;;;;;13.43;3.03;;;;;6.60;103423.00;;;;10081098;29;20239;-82
2023/12/16 06:37:57;;;;;;;9.50;3.33;;;;;6.50;103433.00;;;;10043794;29;20254;-82
2023/12/16 06:42:59;;;;;;;10.77;2.87;;;;;6.50;103436.00;;;;10059653;29;20231;-82
2023/12/16 06:48:01;;;;;;;13.17;3.13;;;;;6.60;103425.00;;;;10063490;29;20231;-83
2023/12/16 06:53:02;;;;;;;15.60;3.10;;;;;6.70;103429.00;;;;10088088;29;21076;-81
2023/12/16 06:58:04;;;;;;;10.40;3.10;;;;;6.80;103428.00;;;;10074069;29;20243;-83
2023/12/16 07:03:05;;;;;;;10.27;3.00;;;;;6.90;103434.00;;;;10074389;29;20260;-82
2023/12/16 07:08:07;;;;;;;14.13;3.10;;;;;7.00;103439.00;;;;10060934;29;20230;-81
2023/12/16 07:13:08;;;;;;;13.53;3.33;;;;;7.10;103439.00;;;;10053265;29;20814;-81
2023/12/16 07:18:09;;;;;;;12.33;3.77;;;;;7.10;103442.00;;;;10071206;29;20337;-82
2023/12/16 07:23:11;;;;;;;14.83;2.93;;;;;7.00;103455.00;;;;10066665;29;20235;-82
2023/12/16 07:28:13;;;;;;;12.40;3.63;;;;;6.90;103451.00;;;;10072861;29;20314;-82
2023/12/16 07:33:14;;;;;;;11.13;3.37;;;;;6.80;103469.00;;;;10086189;29;20678;-81
2023/12/16 07:38:15;;;;;;;16.23;3.77;;;;;6.80;103478.00;;;;10060629;29;20961;-82
2023/12/16 07:43:17;;;;;;;19.60;3.93;;;;;6.90;103469.00;;;;10074858;29;20238;-82
2023/12/16 07:48:18;;;;;;;14.93;3.70;;;;;7.00;103471.00;;;;10052872;29;20877;-82
2023/12/16 07:53:21;;;;;;;11.73;2.60;;;;;7.20;103454.00;;;;10055725;29;20586;-82
2023/12/16 07:58:22;;;;;;;6.83;2.77;;;;;7.30;103467.00;;;;10083286;29;20224;-82
2023/12/16 08:03:26;;;;;;;8.27;2.90;;;;;7.40;103477.00;;;;10053195;29;20283;-82
2023/12/16 08:08:28;;;;;;;12.57;3.57;;;;;7.40;103476.00;;;;10064588;29;20232;-84
2023/12/16 08:13:29;;;;;;;11.43;3.67;;;;;7.50;103483.00;;;;10071444;29;20972;-82
2023/12/16 08:18:31;;;;;;;11.63;2.90;;;;;7.60;103479.00;;;;10069723;29;20336;-82
2023/12/16 08:23:32;;;;;;;14.77;3.63;;;;;7.80;103478.00;;;;10072946;29;20298;-82
2023/12/16 08:28:36;;;;;;;22.60;3.53;;;;;7.90;103494.00;;;;10088007;29;20275;-82
2023/12/16 08:33:37;;;;;;;14.43;3.90;;;;;7.90;103506.00;;;;10072736;29;20353;-82
2023/12/16 08:38:39;;;;;;;15.40;3.50;;;;;8.00;103515.00;;;;10073288;29;20331;-82
2023/12/16 08:43:42;;;;;;;16.43;3.30;;;;;8.20;103510.00;;;;10055312;29;20286;-82
2023/12/16 08:48:44;;;;;;;16.27;3.70;;;;;8.30;103508.00;;;;10048737;29;20232;-81
2023/12/16 08:53:45;;;;;;;18.83;3.40;;;;;8.40;103521.00;;;;10053792;29;20232;-82
2023/12/16 08:58:46;;;;;;;13.10;3.93;;;;;8.50;103525.00;;;;10058993;29;20266;-86
2023/12/16 09:03:47;;;;;;;17.30;3.93;;;;;8.60;103525.00;;;;10065530;29;20240;-85
2023/12/16 09:08:54;;;;;;;17.97;3.73;;;;;8.70;103517.00;;;;10058897;29;20286;-85
2023/12/16 09:13:55;;;;;;;12.40;3.60;;;;;8.90;103522.00;;;;10075557;29;20223;-84
2023/12/16 09:18:56;;;;;;;11.30;3.67;;;;;8.90;103532.00;;;;10067146;29;20572;-85
2023/12/16 09:23:58;;;;;;;16.37;3.50;;;;;9.00;103536.00;;;;10057390;29;20223;-86
2023/12/16 09:29:00;;;;;;;12.37;3.73;;;;;9.00;103541.00;;;;10058549;29;20775;-86
2023/12/16 09:34:02;;;;;;;12.93;3.60;;;;;9.10;103537.00;;;;10072098;29;20231;-85
2023/12/16 09:39:04;;;;;;;14.87;4.07;;;;;9.20;103549.00;;;;10077525;29;20233;-86
2023/12/16 09:44:07;;;;;;;12.03;3.93;;;;;9.20;103553.00;;;;10063157;29;20231;-86
2023/12/16 09:49:08;;;;;;;13.30;3.50;;;;;9.30;103559.00;;;;10079707;29;21020;-85
2023/12/16 09:54:09;;;;;;;14.40;3.83;;;;;9.40;103556.00;;;;10072926;29;20240;-84
2023/12/16 09:59:12;;;;;;;14.87;4.30;;;;;9.50;103561.00;;;;10069403;29;20227;-85
2023/12/16 10:04:14;;;;;;;14.47;4.00;;;;;9.60;103551.00;;;;10055608;29;20242;-85
2023/12/16 10:09:16;;;;;;;20.13;4.73;;;;;9.60;103541.00;;;;10076787;29;20271;-87
2023/12/16 10:14:20;;;;;;;11.57;3.43;;;;;9.70;103543.00;;;;10051861;29;20227;-86
2023/12/16 10:19:21;;;;;;;17.77;4.20;;;;;9.90;103539.00;;;;10068745;29;20227;-86
2023/12/16 10:24:22;;;;;;;16.80;4.33;;;;;10.00;103536.00;;;;10047834;29;20263;-86
2023/12/16 10:29:25;;;;;;;17.17;3.87;;;;;9.90;103536.00;;;;10072934;29;20261;-83
2023/12/16 10:34:29;;;;;;;13.23;3.87;;;;;9.90;103530.00;;;;10073718;29;20596;-86
2023/12/16 10:39:31;;;;;;;22.53;4.87;;;;;10.00;103529.00;;;;10074823;29;20230;-85
2023/12/16 10:44:33;;;;;;;13.37;4.37;;;;;10.00;103530.00;;;;10086043;29;20322;-85
2023/12/16 10:49:38;;;;;;;14.80;4.10;;;;;10.00;103526.00;;;;10057180;29;20347;-85
2023/12/16 10:54:40;;;;;;;15.20;4.23;;;;;10.00;103523.00;;;;10058165;29;20231;-85
2023/12/16 10:59:45;;;;;;;12.33;3.47;;;;;10.10;103523.00;;;;10071630;29;20239;-86
2023/12/16 11:04:51;;;;;;;11.97;4.10;;;;;10.20;103513.00;;;;10083629;29;20559;-85
2023/12/16 11:09:52;;;;;;;18.73;4.80;;;;;10.20;103513.00;;;;10061641;29;20224;-85
2023/12/16 11:14:55;;;;;;;18.47;4.67;;;;;10.30;103510.00;;;;10054298;29;20227;-85
2023/12/16 11:20:01;;;;;;;15.17;4.23;;;;;10.30;103508.00;;;;10055118;29;20946;-85
2023/12/16 11:25:04;;;;;;;14.40;4.20;;;;;10.40;103491.00;;;;10067150;29;20238;-84
2023/12/16 11:30:06;;;;;;;15.97;4.97;;;;;10.60;103488.00;;;;10066925;29;20223;-84
2023/12/16 11:35:08;;;;;;;18.97;4.93;;;;;10.60;103490.00;;;;10057881;29;20219;-82
2023/12/16 11:40:48;;;;;;;16.73;4.63;;;;;10.60;103482.00;;;;10058155;29;20764;-84
2023/12/16 11:45:49;;;;;;;20.50;4.87;;;;;10.60;103475.00;;;;10065197;29;20232;-83
2023/12/16 11:50:50;;;;;;;14.40;5.07;;;;;10.70;103478.00;;;;10054293;29;20640;-84
2023/12/16 11:55:51;;;;;;;14.37;5.37;;;;;10.60;103477.00;;;;10104531;29;20347;-83
2023/12/16 12:00:53;;;;;;;17.27;5.40;;;;;10.70;103471.00;;;;10060558;29;20243;-85
2023/12/16 12:05:54;;;;;;;22.93;5.93;;;;;10.80;103459.00;;;;10069833;29;20692;-83
2023/12/16 12:10:57;;;;;;;17.40;6.10;;;;;10.80;103456.00;;;;10072993;29;20235;-83
2023/12/16 12:15:59;;;;;;;16.33;5.57;;;;;10.70;103455.00;;;;10072603;29;20231;-85
2023/12/16 12:21:01;;;;;;;19.47;6.30;;;;;10.60;103458.00;;;;10056496;29;20220;-83
2023/12/16 12:26:03;;;;;;;17.80;6.73;;;;;10.60;103463.00;;;;10071339;29;20224;-84
2023/12/16 12:31:07;;;;;;;23.87;6.67;;;;;10.60;103453.00;;;;10062345;29;20327;-81
2023/12/16 12:36:09;;;;;;;17.87;7.87;;;;;10.60;103440.00;;;;10073873;29;20322;-81
2023/12/16 12:41:15;;;;;;;22.73;7.60;;;;;10.60;103451.00;;;;10080211;29;20236;-81
2023/12/16 12:46:17;;;;;;;23.60;7.77;;;;;10.50;103453.00;;;;10072947;29;20242;-81
2023/12/16 12:51:18;;;;;;;22.37;9.13;;;;;10.50;103440.00;;;;10072452;29;20238;-81
2023/12/16 12:56:19;;;;;;;20.70;7.57;;;;;10.40;103436.00;;;;10071602;29;20283;-80
2023/12/16 13:01:20;;;;;;;22.67;8.67;;;;;10.30;103434.00;;;;10066967;29;20224;-80
2023/12/16 13:06:21;;;;;;;21.60;7.93;;;;;10.30;103438.00;;;;10086481;29;20227;-81
2023/12/16 13:11:23;;;;;;;20.70;8.20;;;;;10.30;103421.00;;;;10070331;29;20312;-81
2023/12/16 13:16:25;;;;;;;26.37;8.83;;;;;10.30;103425.00;;;;10071040;29;21025;-80
2023/12/16 13:21:26;;;;;;;24.30;8.40;;;;;10.30;103404.00;;;;10081120;29;20863;-80
2023/12/16 13:26:27;;;;;;;26.63;8.97;;;;;10.30;103411.00;;;;10070635;29;20262;-80
2023/12/16 13:31:29;;;;;;;24.53;7.90;;;;;10.40;103395.00;;;;10071755;29;20318;-81
2023/12/16 13:36:30;;;;;;;20.30;7.93;;;;;10.30;103400.00;;;;10052237;29;20228;-81
2023/12/16 13:41:50;;;;;;;20.20;7.60;;;;;10.30;103395.00;;;;10070213;29;20232;-85
2023/12/16 13:46:51;;;;;;;23.30;8.17;;;;;10.20;103390.00;;;;10059125;29;20220;-86
2023/12/16 13:51:53;;;;;;;21.70;7.10;;;;;10.20;103379.00;;;;10057062;29;20306;-87
2023/12/16 13:56:54;;;;;;;25.57;7.87;;;;;10.20;103372.00;;;;10070599;29;20342;-85
2023/12/16 14:01:55;;;;;;;15.50;7.30;;;;;10.10;103369.00;;;;10073398;29;20903;-85
2023/12/16 14:06:57;;;;;;;19.80;6.83;;;;;10.10;103369.00;;;;10060703;29;20231;-83
2023/12/16 14:11:58;;;;;;;11.87;6.37;;;;;10.10;103371.00;;;;10070823;29;20238;-83
2023/12/16 14:16:59;;;;;;;24.23;7.03;;;;;10.00;103372.00;;;;10061939;29;20238;-84
2023/12/16 14:22:01;;;;;;;21.63;6.03;;;;;9.90;103368.00;;;;10082657;29;20228;-84
2023/12/16 14:27:02;;;;;;;14.93;6.07;;;;;9.90;103376.00;;;;10067391;29;20235;-83
2023/12/16 14:32:04;;;;;;;17.17;5.97;;;;;9.80;103375.00;;;;10049812;29;20770;-84
2023/12/16 14:37:05;;;;;;;13.77;5.50;;;;;9.70;103377.00;;;;10066439;29;20242;-83
2023/12/16 14:42:09;;;;;;;13.67;5.70;;;;;9.70;103372.00;;;;10077102;29;20689;-83
2023/12/16 14:47:10;;;;;;;21.00;6.67;;;;;9.70;103377.00;;;;10072422;29;20237;-79
2023/12/16 14:52:11;;;;;;;15.37;6.50;;;;;9.60;103375.00;;;;10046310;29;20690;-77
2023/12/16 14:57:12;;;;;;;17.73;6.07;;;;;9.50;103363.00;;;;10063491;29;20279;-77
2023/12/16 15:02:14;;;;;;;22.10;7.50;;;;;9.50;103366.00;;;;10062306;29;20296;-77
2023/12/16 15:07:15;;;;;;;17.80;5.90;;;;;9.50;103365.00;;;;10067168;29;20262;-77
2023/12/16 15:12:17;;;;;;;14.47;6.13;;;;;9.50;103366.00;;;;10072215;29;20232;-78
2023/12/16 15:17:18;;;;;;;20.73;6.17;;;;;9.40;103365.00;;;;10094606;29;20243;-77
2023/12/16 15:22:19;;;;;;;18.20;4.97;;;;;9.40;103366.00;;;;10075445;29;20267;-77
2023/12/16 15:27:20;;;;;;;15.80;5.67;;;;;9.40;103362.00;;;;10054017;29;20326;-79
2023/12/16 15:32:21;;;;;;;14.37;5.30;;;;;9.40;103362.00;;;;10083276;29;20267;-77
2023/12/16 15:37:22;;;;;;;13.67;5.87;;;;;9.40;103357.00;;;;10076985;29;20228;-78
2023/12/16 15:42:23;;;;;;;19.40;6.00;;;;;9.40;103355.00;;;;10058910;29;20235;-79
2023/12/16 15:47:25;;;;;;;21.63;5.90;;;;;9.40;103357.00;;;;10055423;29;20228;-76
2023/12/16 15:52:29;;;;;;;17.70;6.23;;;;;9.40;103351.00;;;;10056499;29;20236;-77
2023/12/16 15:57:30;;;;;;;13.17;5.73;;;;;9.30;103353.00;;;;10067741;29;20307;-83
2023/12/16 16:02:31;;;;;;;13.07;5.63;;;;;9.40;103358.00;;;;10063014;29;20908;-83
2023/12/16 16:07:32;;;;;;;13.40;5.00;;;;;9.40;103358.00;;;;10058067;29;20675;-83
2023/12/16 16:12:34;;;;;;;16.93;5.73;;;;;9.40;103358.00;;;;10071954;29;20236;-83
2023/12/16 16:17:35;;;;;;;14.10;5.30;;;;;9.40;103358.00;;;;10060934;29;20312;-82
2023/12/16 16:22:36;;;;;;;15.53;4.53;;;;;9.40;103358.00;;;;10063558;29;20268;-83
2023/12/16 16:27:38;;;;;;;12.17;5.37;;;;;9.40;103362.00;;;;10072586;29;20227;-82
2023/12/16 16:32:40;;;;;;;19.43;7.00;;;;;9.40;103357.00;;;;10048878;29;20232;-82
2023/12/16 16:37:42;;;;;;;13.90;5.97;;;;;9.40;103361.00;;;;10058148;29;20247;-82
2023/12/16 16:42:43;;;;;;;16.33;5.70;;;;;9.40;103364.00;;;;10078777;29;20880;-82
2023/12/16 16:47:45;;;;;;;13.90;6.00;;;;;9.40;103362.00;;;;10072882;29;20241;-83
2023/12/16 16:52:47;;;;;;;16.80;5.97;;;;;9.40;103358.00;;;;10105333;29;20239;-83
2023/12/16 16:57:48;;;;;;;14.03;6.10;;;;;9.40;103355.00;;;;10071825;29;20267;-82
2023/12/16 17:02:50;;;;;;;15.83;5.07;;;;;9.40;103364.00;;;;10095383;29;20223;-82
2023/12/16 17:07:51;;;;;;;21.87;5.67;;;;;9.40;103378.00;;;;10118427;29;20377;-84
2023/12/16 17:12:52;;;;;;;17.90;5.97;;;;;9.40;103393.00;;;;10087945;29;20274;-80
2023/12/16 17:17:53;;;;;;;14.90;6.90;;;;;9.40;103396.00;;;;10066446;29;20259;-79
2023/12/16 17:22:55;;;;;;;14.63;6.50;;;;;9.40;103380.00;;;;10064505;29;20235;-80
2023/12/16 17:27:56;;;;;;;15.60;6.10;;;;;9.40;103376.00;;;;10064745;29;20239;-79
2023/12/16 17:32:58;;;;;;;14.47;6.57;;;;;9.40;103376.00;;;;10068369;29;20300;-80
2023/12/16 17:37:59;;;;;;;15.37;6.70;;;;;9.40;103360.00;;;;10063747;29;20270;-79
2023/12/16 17:43:02;;;;;;;16.27;7.47;;;;;9.40;103360.00;;;;10088910;29;20676;-79
2023/12/16 17:48:04;;;;;;;16.70;7.37;;;;;9.40;103348.00;;;;10077618;29;20254;-81
2023/12/16 17:53:05;;;;;;;16.40;7.87;;;;;9.50;103340.00;;;;10060450;29;20594;-79
2023/12/16 17:58:08;;;;;;;13.17;7.70;;;;;9.40;103359.00;;;;10065530;29;20219;-78
2023/12/16 18:03:10;;;;;;;11.50;6.90;;;;;9.40;103345.00;;;;10061937;29;20235;-80
2023/12/16 18:08:11;;;;;;;15.17;7.63;;;;;9.50;103342.00;;;;10051205;29;20235;-80
2023/12/16 18:13:13;;;;;;;15.10;7.37;;;;;9.50;103334.00;;;;10068132;29;20234;-84
2023/12/16 18:18:14;;;;;;;12.40;7.50;;;;;9.50;103343.00;;;;10075980;29;20249;-82
2023/12/16 18:23:16;;;;;;;12.53;7.27;;;;;9.40;103361.00;;;;10059744;29;20224;-83
2023/12/16 18:28:17;;;;;;;12.60;9.07;;;;;9.40;103360.00;;;;10083291;29;20824;-82
2023/12/16 18:33:18;;;;;;;15.63;8.73;;;;;9.40;103358.00;;;;10060461;29;20284;-81
2023/12/16 18:38:20;;;;;;;20.00;9.53;;;;;9.40;103354.00;;;;10048898;29;20300;-82
2023/12/16 18:43:22;;;;;;;13.07;9.53;;;;;9.40;103354.00;;;;10071781;29;20256;-81
2023/12/16 18:48:23;;;;;;;18.00;9.80;;;;;9.40;103355.00;;;;10054286;29;20228;-82
2023/12/16 18:53:24;;;;;;;17.53;10.07;;;;;9.40;103346.00;;;;10074593;29;20234;-81
2023/12/16 18:58:26;;;;;;;18.33;9.43;;;;;9.40;103336.00;;;;10076817;29;21150;-82
2023/12/16 19:03:27;;;;;;;17.90;9.80;;;;;9.40;103332.00;;;;10072750;29;20251;-82
2023/12/16 19:08:29;;;;;;;15.37;9.13;;;;;9.40;103313.00;;;;10097784;29;20797;-83
2023/12/16 19:13:30;;;;;;;17.20;9.47;;;;;9.40;103324.00;;;;10087589;29;20969;-82
2023/12/16 19:18:32;;;;;;;14.67;9.00;;;;;9.40;103328.00;;;;10068149;29;20235;-82
2023/12/16 19:23:34;;;;;;;14.83;9.57;;;;;9.40;103339.00;;;;10070285;29;20234;-82
2023/12/16 19:28:35;;;;;;;16.83;9.90;;;;;9.40;103344.00;;;;10087989;29;20220;-83
2023/12/16 19:33:38;;;;;;;15.23;9.50;;;;;9.40;103345.00;;;;10065174;29;20224;-83
2023/12/16 19:38:40;;;;;;;21.70;9.17;;;;;9.50;103346.00;;;;10081139;29;20239;-84
2023/12/16 19:43:41;;;;;;;18.07;8.93;;;;;9.50;103364.00;;;;10087314;29;20715;-83
2023/12/16 19:48:42;;;;;;;17.03;9.53;;;;;9.50;103357.00;;;;10078351;29;20852;-83
2023/12/16 19:53:45;;;;;;;16.10;9.57;;;;;9.50;103357.00;;;;10078723;29;20231;-84
2023/12/16 19:58:46;;;;;;;18.80;10.30;;;;;9.40;103358.00;;;;10077044;29;20274;-84
2023/12/16 20:03:48;;;;;;;19.87;10.23;;;;;9.40;103357.00;;;;10059086;29;20247;-82
2023/12/16 20:08:49;;;;;;;14.60;9.57;;;;;9.40;103348.00;;;;10062920;29;20643;-84
2023/12/16 20:13:50;;;;;;;19.10;10.40;;;;;9.40;103345.00;;;;10087449;29;20288;-84
2023/12/16 20:18:52;;;;;;;14.13;9.17;;;;;9.40;103332.00;;;;10095197;29;20583;-84
2023/12/16 20:23:53;;;;;;;15.53;9.73;;;;;9.40;103339.00;;;;10060084;29;20231;-84
2023/12/16 20:28:55;;;;;;;12.57;9.27;;;;;9.40;103336.00;;;;10067101;29;20270;-83
2023/12/16 20:33:56;;;;;;;17.70;9.63;;;;;9.40;103338.00;;;;10078252;29;20316;-84
2023/12/16 20:44:18;;;;;;;16.70;10.23;;;;;9.40;103321.00;;;;10098467;29;21095;-83
2023/12/16 20:49:19;;;;;;;18.40;11.00;;;;;9.40;103335.00;;;;10059428;29;20240;-83
2023/12/16 20:54:21;;;;;;;18.90;11.33;;;;;9.40;103347.00;;;;10070036;29;20227;-83
2023/12/16 20:59:22;;;;;;;16.40;11.70;;;;;9.40;103365.00;;;;10074857;29;20317;-84
2023/12/16 21:04:23;;;;;;;16.17;11.27;;;;;9.40;103383.00;;;;10070128;29;20232;-83
2023/12/16 21:09:24;;;;;;;14.93;10.57;;;;;9.40;103391.00;;;;10055867;29;20259;-83
2023/12/16 21:14:26;;;;;;;15.10;11.30;;;;;9.40;103390.00;;;;10059003;29;20228;-83
2023/12/16 21:19:27;;;;;;;14.57;11.37;;;;;9.40;103386.00;;;;10065069;29;20761;-82
2023/12/16 21:24:28;;;;;;;13.57;10.77;;;;;9.40;103399.00;;;;10064839;29;20231;-83
2023/12/16 21:29:29;;;;;;;17.70;11.87;;;;;9.40;103393.00;;;;10068194;29;20238;-82
2023/12/16 21:34:30;;;;;;;17.73;12.43;;;;;9.40;103388.00;;;;10062463;29;20223;-84
2023/12/16 21:39:33;;;;;;;15.20;11.33;;;;;9.40;103383.00;;;;10057625;29;20242;-83
2023/12/16 21:44:35;;;;;;;20.13;12.80;;;;;9.40;103382.00;;;;10067662;29;20236;-83
2023/12/16 21:49:36;;;;;;;19.90;13.70;;;;;9.40;103390.00;;;;10084276;29;20619;-82
2023/12/16 21:54:37;;;;;;;20.17;12.83;;;;;9.40;103393.00;;;;10064884;29;20314;-82
2023/12/16 21:59:38;;;;;;;18.37;13.33;;;;;9.40;103391.00;;;;10065796;29;20223;-82
2023/12/16 22:04:40;;;;;;;15.50;12.17;;;;;9.40;103397.00;;;;10062218;29;21361;-81
2023/12/16 22:09:42;;;;;;;18.80;13.37;;;;;9.40;103381.00;;;;10055935;29;20968;-82
2023/12/16 22:14:43;;;;;;;16.90;13.47;;;;;9.40;103376.00;;;;10078322;29;20266;-81
2023/12/16 22:19:57;;;;;;;19.83;14.97;;;;;9.40;103378.00;;;;10048274;29;20693;-82
2023/12/16 22:24:58;;;;;;;18.80;13.23;;;;;9.40;103400.00;;;;10045520;29;20797;-82
2023/12/16 22:30:01;;;;;;;19.57;14.50;;;;;9.40;103394.00;;;;10068046;29;20302;-82
2023/12/16 22:35:02;;;;;;;18.23;13.90;;;;;9.40;103394.00;;;;10075975;29;20226;-81
2023/12/16 22:40:04;;;;;;;22.73;14.63;;;;;9.40;103392.00;;;;10112767;29;20297;-81
2023/12/16 22:45:06;;;;;;;18.93;14.03;;;;;9.40;103397.00;;;;10074987;29;20326;-82
2023/12/16 22:50:08;;;;;;;20.20;15.23;;;;;9.30;103395.00;;;;10070072;29;20231;-82
2023/12/16 22:55:10;;;;;;;22.33;14.70;;;;;9.30;103381.00;;;;10056918;29;20227;-82
2023/12/16 23:05:28;;;;;;;19.60;15.03;;;;;9.30;103380.00;;;;10071854;29;20685;-84
2023/12/16 23:10:29;;;;;;;21.43;14.97;;;;;9.30;103376.00;;;;10058374;29;20743;-83
2023/12/16 23:15:30;;;;;;;19.43;14.93;;;;;9.30;103361.00;;;;10054999;29;20283;-84
2023/12/16 23:20:31;;;;;;;19.33;15.47;;;;;9.30;103351.00;;;;10063997;29;20220;-83
2023/12/16 23:25:33;;;;;;;19.50;15.13;;;;;9.30;103346.00;;;;10053757;29;20234;-84
2023/12/16 23:30:34;;;;;;;21.77;15.53;;;;;9.30;103343.00;;;;10049980;29;20253;-83
2023/12/16 23:35:35;;;;;;;22.37;14.57;;;;;9.30;103349.00;;;;10059487;29;20227;-84
2023/12/16 23:40:36;;;;;;;21.20;14.93;;;;;9.20;103350.00;;;;10069889;29;20239;-83
2023/12/16 23:45:37;;;;;;;18.50;14.77;;;;;9.20;103354.00;;;;10065243;29;20322;-84
2023/12/16 23:50:38;;;;;;;21.63;14.97;;;;;9.30;103356.00;;;;10055167;29;20311;-83
2023/12/16 23:55:40;;;;;;;22.07;15.17;;;;;9.20;103337.00;;;;10063106;29;20762;-83
